Newton, Texas
Current Conditions -  °F | °C
As of 4:55 AM on Monday 20 Oct 2014 (Local Time) from KJAS Reporting Station
Clear Clear  
Wind Chill: 53°   Ceiling: Unl
Heat Index: 53°   Visibility: 10mi
Dew Point: 51°   Wind: 3mph
Humidity: 94%   Direction: 70°ENE
Pressure: 30.06"   Gusts: NA
Location:  30.85°N, 93.76°W
Report Text: KJAS 200955Z AUTO 07003KT 10SM CLR 12/11 A3006 RMK AO2 T01150105
Loading
Personal Weather Stations






























Interactive Weather Map
Tropical Storm Tracking
New forecast layout! Learn more

10-Day Weather Forecast

Advertisements
Track Severe Weather on mobile